Time;durP1;ratioP1;P1;durP2;ratioP2;P2;SDS_P1;SDS_P2;PMS_P1;PMS_P2;Temp;Humidity;BMP_temperature;BMP_pressure;BME280_temperature;BME280_humidity;BME280_pressure;Samples;Min_cycle;Max_cycle;Signal;HPM_P1;HPM_P2
2022/11/20 00:01:24;;;;;;;4.10;2.70;;;5.30;99.90;;;;;;5012762;28;20187;-87
2022/11/20 00:03:55;;;;;;;3.97;2.60;;;5.20;99.90;;;;;;5048104;28;20258;-86
2022/11/20 00:06:22;;;;;;;3.27;2.70;;;5.10;99.90;;;;;;5015490;28;20557;-87
2022/11/20 00:08:48;;;;;;;2.70;2.43;;;5.00;99.90;;;;;;5015150;28;20230;-87
2022/11/20 00:11:22;;;;;;;3.27;2.70;;;5.00;99.90;;;;;;5031910;28;20182;-87
2022/11/20 00:13:50;;;;;;;3.80;2.67;;;5.00;99.90;;;;;;5031973;28;20180;-87
2022/11/20 00:16:19;;;;;;;3.43;3.00;;;5.00;99.90;;;;;;5032373;28;20199;-86
2022/11/20 00:18:45;;;;;;;4.93;3.00;;;5.00;99.90;;;;;;5032093;28;20177;-86
2022/11/20 00:21:23;;;;;;;3.20;2.90;;;4.90;99.90;;;;;;5031899;28;20173;-87
2022/11/20 00:23:50;;;;;;;3.43;2.87;;;4.90;99.90;;;;;;5032452;28;20184;-87
2022/11/20 00:26:18;;;;;;;3.93;3.30;;;4.90;99.90;;;;;;5032379;28;20250;-87
2022/11/20 00:28:49;;;;;;;3.40;3.10;;;4.80;99.90;;;;;;5031426;28;20186;-87
2022/11/20 00:31:16;;;;;;;7.17;3.80;;;4.80;99.90;;;;;;5031921;28;20171;-87
2022/11/20 00:33:43;;;;;;;4.97;3.57;;;4.80;99.90;;;;;;5015451;28;20187;-87
2022/11/20 00:36:15;;;;;;;5.87;3.90;;;4.80;99.90;;;;;;5031805;28;20201;-86
2022/11/20 00:38:42;;;;;;;4.27;3.50;;;4.80;99.90;;;;;;5031515;28;20168;-87
2022/11/20 00:41:09;;;;;;;4.20;3.57;;;4.80;99.90;;;;;;5033194;28;20173;-87
2022/11/20 00:43:37;;;;;;;4.10;3.27;;;4.80;99.90;;;;;;5031888;28;20215;-87
2022/11/20 00:46:06;;;;;;;3.67;3.20;;;4.80;99.90;;;;;;5032009;28;20205;-86
2022/11/20 00:48:32;;;;;;;4.03;3.63;;;4.80;99.90;;;;;;5031280;28;20211;-87
2022/11/20 00:50:59;;;;;;;3.83;3.47;;;4.80;99.90;;;;;;5031595;28;20180;-86
2022/11/20 00:53:25;;;;;;;4.47;3.67;;;4.80;99.90;;;;;;5031695;28;20194;-87
2022/11/20 00:56:03;;;;;;;5.67;4.07;;;4.80;99.90;;;;;;4997037;28;20211;-86
2022/11/20 00:58:37;;;;;;;4.07;3.50;;;4.80;99.90;;;;;;5005113;28;20181;-86
2022/11/20 01:01:09;;;;;;;6.40;3.50;;;4.90;99.90;;;;;;5031970;28;20197;-86
2022/11/20 01:03:38;;;;;;;4.63;3.73;;;4.80;99.90;;;;;;5031476;28;20279;-87
2022/11/20 01:06:09;;;;;;;5.60;4.23;;;4.80;99.90;;;;;;5031558;28;20741;-87
2022/11/20 01:08:36;;;;;;;4.67;4.13;;;4.80;99.90;;;;;;5033972;28;20654;-87
2022/11/20 01:11:07;;;;;;;6.50;3.97;;;4.70;99.90;;;;;;5035225;28;20187;-87
2022/11/20 01:13:36;;;;;;;5.47;4.20;;;4.70;99.90;;;;;;5035126;28;20187;-86
2022/11/20 01:16:19;;;;;;;4.90;4.00;;;4.60;99.90;;;;;;5034848;28;20286;-86
2022/11/20 01:18:48;;;;;;;5.37;4.67;;;4.60;99.90;;;;;;5027066;28;20170;-86
2022/11/20 01:21:21;;;;;;;7.47;5.47;;;4.50;99.90;;;;;;5035448;28;20179;-86
2022/11/20 01:23:48;;;;;;;7.60;4.73;;;4.40;99.90;;;;;;5052023;28;20172;-87
2022/11/20 01:26:17;;;;;;;6.27;4.47;;;4.40;99.90;;;;;;5034941;28;20204;-86
2022/11/20 01:28:43;;;;;;;5.43;4.70;;;4.40;99.90;;;;;;5034398;28;20226;-87
2022/11/20 01:31:35;;;;;;;4.90;4.40;;;4.40;99.90;;;;;;5033637;28;20170;-86
2022/11/20 01:34:07;;;;;;;5.90;4.80;;;4.40;99.90;;;;;;5035157;28;20182;-86
2022/11/20 01:36:35;;;;;;;5.50;4.60;;;4.40;99.90;;;;;;5034914;28;20269;-86
2022/11/20 01:39:05;;;;;;;6.17;4.23;;;4.40;99.90;;;;;;5034524;28;20322;-86
2022/11/20 01:44:19;;;;;;;7.03;5.33;;;4.40;99.90;;;;;;5035745;28;20178;-86
2022/11/20 01:46:58;;;;;;;5.83;4.87;;;4.40;99.90;;;;;;5034351;28;20207;-86
2022/11/20 01:49:36;;;;;;;5.23;4.10;;;4.40;99.90;;;;;;5034653;28;20200;-86
2022/11/20 01:52:15;;;;;;;6.33;4.87;;;4.40;99.90;;;;;;5034601;28;20170;-86
2022/11/20 01:54:47;;;;;;;7.43;5.20;;;4.40;99.90;;;;;;5034538;28;20323;-87
2022/11/20 01:57:14;;;;;;;7.33;4.90;;;4.40;99.90;;;;;;5033383;28;20168;-87
2022/11/20 01:59:47;;;;;;;7.13;5.10;;;4.40;99.90;;;;;;5034387;28;20179;-86
2022/11/20 02:02:17;;;;;;;6.07;5.43;;;4.40;99.90;;;;;;5034500;28;20255;-86
2022/11/20 02:04:44;;;;;;;5.57;5.03;;;4.50;99.90;;;;;;5017754;28;20244;-86
2022/11/20 02:07:11;;;;;;;4.97;4.33;;;4.40;99.90;;;;;;5033781;28;20211;-87
2022/11/20 02:09:36;;;;;;;5.30;4.53;;;4.50;99.90;;;;;;5034071;28;20289;-87
2022/11/20 02:12:03;;;;;;;5.37;4.47;;;4.50;99.90;;;;;;5034174;28;20266;-86
2022/11/20 02:14:29;;;;;;;5.53;4.20;;;4.60;99.90;;;;;;5034108;28;20694;-86
2022/11/20 02:16:55;;;;;;;4.57;4.10;;;4.60;99.90;;;;;;5033809;28;20179;-87
2022/11/20 02:19:27;;;;;;;5.37;4.10;;;4.60;99.90;;;;;;5033434;28;20203;-86
2022/11/20 02:21:53;;;;;;;5.83;4.43;;;4.70;99.90;;;;;;5032876;28;20179;-87
2022/11/20 02:24:21;;;;;;;6.77;4.20;;;4.80;99.90;;;;;;5033018;28;20190;-86
2022/11/20 02:26:53;;;;;;;5.20;4.00;;;4.80;99.90;;;;;;5033384;28;20721;-87
2022/11/20 02:29:39;;;;;;;5.10;3.70;;;4.90;99.90;;;;;;5034163;28;20281;-86
2022/11/20 02:32:05;;;;;;;4.20;3.50;;;4.90;99.90;;;;;;5033787;28;20232;-86
2022/11/20 02:34:32;;;;;;;5.73;4.07;;;4.90;99.90;;;;;;5033802;28;20210;-86
2022/11/20 02:36:59;;;;;;;3.73;3.33;;;5.00;99.90;;;;;;5018037;28;20230;-86
2022/11/20 02:39:27;;;;;;;4.83;3.17;;;5.00;99.90;;;;;;5034500;28;20182;-86
2022/11/20 02:41:56;;;;;;;4.17;3.40;;;5.00;99.90;;;;;;5033601;28;20189;-86
2022/11/20 02:44:22;;;;;;;3.77;3.07;;;5.00;99.90;;;;;;5033537;28;20244;-86
2022/11/20 02:46:48;;;;;;;4.53;3.30;;;5.00;99.90;;;;;;5033267;28;20227;-86
2022/11/20 02:49:13;;;;;;;4.60;3.30;;;5.00;99.90;;;;;;5017373;28;20212;-86
2022/11/20 02:51:39;;;;;;;5.63;3.77;;;5.00;99.90;;;;;;5016942;28;20705;-86
2022/11/20 02:54:05;;;;;;;5.50;3.90;;;5.00;99.90;;;;;;5016692;28;20180;-86
2022/11/20 02:56:31;;;;;;;4.07;3.10;;;5.00;99.90;;;;;;5016804;28;20237;-86
2022/11/20 02:58:57;;;;;;;3.90;3.47;;;5.10;99.90;;;;;;5016680;28;20182;-86
2022/11/20 03:01:23;;;;;;;4.13;3.50;;;5.00;99.90;;;;;;5033143;28;20175;-86
2022/11/20 03:03:49;;;;;;;4.47;3.17;;;5.10;99.90;;;;;;5033160;28;20206;-86
2022/11/20 03:06:16;;;;;;;3.50;3.13;;;5.00;99.90;;;;;;5016793;28;20265;-86
2022/11/20 03:08:42;;;;;;;3.90;2.77;;;5.00;99.90;;;;;;5033136;28;20188;-86
2022/11/20 03:11:09;;;;;;;3.33;2.90;;;5.00;99.90;;;;;;5034333;28;20202;-86
2022/11/20 03:13:35;;;;;;;3.43;2.70;;;5.00;99.90;;;;;;5034705;28;20311;-86
2022/11/20 03:16:13;;;;;;;3.53;2.80;;;5.10;99.90;;;;;;5032470;28;20204;-86
2022/11/20 03:18:40;;;;;;;4.03;2.73;;;5.00;99.90;;;;;;5033916;28;20161;-87
2022/11/20 03:21:07;;;;;;;3.57;2.60;;;5.10;99.90;;;;;;5032762;28;20176;-86
2022/11/20 03:23:33;;;;;;;3.10;2.60;;;5.10;99.90;;;;;;5032695;28;20214;-86
2022/11/20 03:26:19;;;;;;;3.57;2.47;;;5.10;99.90;;;;;;5032481;28;20211;-86
2022/11/20 03:28:51;;;;;;;3.73;2.70;;;5.10;99.90;;;;;;5032636;28;20179;-87
2022/11/20 03:31:19;;;;;;;4.13;2.80;;;5.10;99.90;;;;;;5031965;28;20187;-86
2022/11/20 03:33:45;;;;;;;3.30;2.63;;;5.10;99.90;;;;;;5032932;28;20173;-86
2022/11/20 03:36:13;;;;;;;3.37;2.47;;;5.10;99.90;;;;;;5014502;28;20206;-86
2022/11/20 03:38:40;;;;;;;3.00;2.60;;;5.10;99.90;;;;;;5029118;28;20182;-87
2022/11/20 03:41:09;;;;;;;4.03;2.37;;;5.10;99.90;;;;;;5030033;28;20210;-86
2022/11/20 03:43:36;;;;;;;4.77;2.40;;;5.10;99.90;;;;;;5014564;28;20258;-86
2022/11/20 03:46:02;;;;;;;2.30;2.10;;;5.10;99.90;;;;;;5033788;28;20192;-87
2022/11/20 03:48:29;;;;;;;3.53;2.53;;;5.10;99.90;;;;;;5031914;28;20209;-86
2022/11/20 03:51:14;;;;;;;4.63;2.70;;;5.10;99.90;;;;;;5032324;28;20712;-86
2022/11/20 03:53:42;;;;;;;3.30;2.33;;;5.10;99.90;;;;;;5032444;28;20189;-87
2022/11/20 03:56:09;;;;;;;3.67;2.60;;;5.10;99.90;;;;;;5032196;28;20197;-86
2022/11/20 03:58:39;;;;;;;3.73;2.77;;;5.10;99.90;;;;;;5032293;28;20230;-86
2022/11/20 04:01:09;;;;;;;2.57;2.37;;;5.10;99.90;;;;;;5032802;28;20236;-86
2022/11/20 04:03:36;;;;;;;2.83;2.53;;;5.10;99.90;;;;;;5032114;28;20632;-86
2022/11/20 04:06:10;;;;;;;4.17;2.63;;;5.10;99.90;;;;;;5033466;28;20217;-87
2022/11/20 04:08:37;;;;;;;3.37;2.83;;;5.10;99.90;;;;;;5032144;28;20209;-87
2022/11/20 04:11:14;;;;;;;3.37;2.47;;;5.10;99.90;;;;;;5032040;28;20188;-86
2022/11/20 04:13:41;;;;;;;3.50;3.00;;;5.00;99.90;;;;;;5032036;28;20171;-86
2022/11/20 04:16:09;;;;;;;2.60;2.40;;;5.00;99.90;;;;;;5032113;28;20309;-86
2022/11/20 04:18:35;;;;;;;3.70;2.90;;;5.00;99.90;;;;;;5032065;28;20190;-86
2022/11/20 04:21:02;;;;;;;3.20;2.90;;;5.00;99.90;;;;;;5031982;28;20180;-86
2022/11/20 04:23:27;;;;;;;3.10;2.80;;;5.00;99.90;;;;;;5031901;28;20180;-86
2022/11/20 04:25:53;;;;;;;3.37;2.93;;;5.00;99.90;;;;;;5032060;28;20313;-86
2022/11/20 04:28:19;;;;;;;2.50;2.30;;;5.10;99.90;;;;;;5031866;28;20205;-86
2022/11/20 04:30:46;;;;;;;3.03;2.47;;;5.10;99.90;;;;;;5032249;28;20689;-86
2022/11/20 04:33:12;;;;;;;2.90;2.40;;;5.10;99.90;;;;;;5031934;28;20326;-86
2022/11/20 04:35:38;;;;;;;2.37;2.10;;;5.10;99.90;;;;;;5031952;28;20203;-86
2022/11/20 04:38:04;;;;;;;2.60;2.33;;;5.20;99.90;;;;;;5031723;28;20279;-87
2022/11/20 04:40:31;;;;;;;2.40;2.00;;;5.20;99.90;;;;;;5032082;28;20182;-86
2022/11/20 04:42:56;;;;;;;3.20;1.97;;;5.20;99.90;;;;;;5034949;28;20790;-87
2022/11/20 04:45:23;;;;;;;2.33;2.03;;;5.20;99.90;;;;;;5035511;28;20291;-86
2022/11/20 04:47:49;;;;;;;2.70;1.93;;;5.20;99.90;;;;;;5035397;28;20216;-86
2022/11/20 04:50:15;;;;;;;3.13;2.10;;;5.20;99.90;;;;;;5035554;28;20191;-86
2022/11/20 04:52:41;;;;;;;2.30;2.00;;;5.20;99.90;;;;;;5052603;28;20628;-86
2022/11/20 04:55:07;;;;;;;2.67;1.87;;;5.20;99.90;;;;;;5035386;28;20205;-86
2022/11/20 04:57:34;;;;;;;2.37;1.80;;;5.20;99.90;;;;;;5036491;28;20190;-86
2022/11/20 04:59:59;;;;;;;3.20;1.97;;;5.20;99.90;;;;;;5036642;28;20185;-86
2022/11/20 05:02:25;;;;;;;2.30;2.00;;;5.20;99.90;;;;;;5051378;28;20185;-86
2022/11/20 05:04:51;;;;;;;2.17;1.93;;;5.20;99.90;;;;;;5035208;28;20251;-86
2022/11/20 05:07:17;;;;;;;2.00;1.80;;;5.20;99.90;;;;;;5034918;28;20217;-86
2022/11/20 05:09:44;;;;;;;4.50;1.90;;;5.20;99.90;;;;;;5035560;28;20178;-86
2022/11/20 05:12:10;;;;;;;2.37;1.80;;;5.20;99.90;;;;;;5035474;28;20186;-86
2022/11/20 05:14:36;;;;;;;2.10;1.90;;;5.20;99.90;;;;;;5035107;28;20194;-86
2022/11/20 05:17:01;;;;;;;2.00;1.80;;;5.20;99.90;;;;;;5034969;28;20239;-86
2022/11/20 05:19:27;;;;;;;2.90;2.00;;;5.20;99.90;;;;;;5052115;28;20183;-86
2022/11/20 05:21:53;;;;;;;2.87;2.00;;;5.20;99.90;;;;;;5035350;28;20216;-87
2022/11/20 05:24:19;;;;;;;3.83;2.30;;;5.10;99.90;;;;;;5034568;28;20194;-86
2022/11/20 05:26:45;;;;;;;2.20;2.00;;;5.10;99.90;;;;;;5033989;28;20191;-87
2022/11/20 05:29:11;;;;;;;4.37;2.47;;;5.10;99.90;;;;;;5034888;28;20186;-86
2022/11/20 05:31:40;;;;;;;4.03;2.70;;;5.10;99.90;;;;;;5035610;28;20186;-86
2022/11/20 05:34:06;;;;;;;3.63;2.37;;;5.10;99.90;;;;;;5035110;28;20318;-86
2022/11/20 05:36:32;;;;;;;3.30;2.30;;;5.10;99.90;;;;;;4998872;28;20180;-86
2022/11/20 05:38:58;;;;;;;2.93;1.97;;;5.10;99.90;;;;;;4998868;28;20181;-86
2022/11/20 05:41:33;;;;;;;2.67;2.27;;;5.10;99.90;;;;;;4998589;28;20636;-86
2022/11/20 05:43:59;;;;;;;2.63;2.40;;;5.10;99.90;;;;;;5005472;28;20159;-86
2022/11/20 05:46:25;;;;;;;2.77;2.50;;;5.10;99.90;;;;;;5034521;28;20318;-86
2022/11/20 05:48:51;;;;;;;2.17;1.97;;;5.00;99.90;;;;;;5034557;28;20246;-87
2022/11/20 05:51:18;;;;;;;3.60;2.30;;;5.00;99.90;;;;;;5034510;28;20693;-86
2022/11/20 05:53:45;;;;;;;2.40;2.20;;;5.00;99.90;;;;;;5033640;28;20282;-86
2022/11/20 05:56:13;;;;;;;2.27;1.80;;;5.00;99.90;;;;;;5034457;28;20212;-86
2022/11/20 05:58:40;;;;;;;4.27;1.77;;;5.00;99.90;;;;;;5034201;28;20185;-86
2022/11/20 06:01:16;;;;;;;2.03;1.67;;;5.00;99.90;;;;;;5034653;28;20175;-86
2022/11/20 06:03:45;;;;;;;3.77;1.90;;;4.90;99.90;;;;;;5034388;28;20177;-87
2022/11/20 06:06:12;;;;;;;3.13;2.40;;;5.00;99.90;;;;;;5034222;28;20215;-86
2022/11/20 06:08:38;;;;;;;2.83;2.00;;;5.00;99.90;;;;;;5034008;28;20216;-86
2022/11/20 06:11:09;;;;;;;2.00;1.80;;;5.00;99.90;;;;;;5034787;28;20177;-86
2022/11/20 06:13:35;;;;;;;2.23;1.97;;;5.00;99.90;;;;;;5042150;28;20277;-88
2022/11/20 06:16:01;;;;;;;3.93;2.00;;;5.00;99.90;;;;;;4998958;28;20716;-88
2022/11/20 06:18:28;;;;;;;3.83;2.00;;;5.00;99.90;;;;;;4998134;28;20212;-88
2022/11/20 06:21:14;;;;;;;2.10;1.70;;;5.00;99.90;;;;;;5008542;28;20279;-88
2022/11/20 06:23:41;;;;;;;1.90;1.70;;;5.00;99.90;;;;;;5017699;28;20656;-88
2022/11/20 06:26:12;;;;;;;1.77;1.57;;;5.00;99.90;;;;;;5005891;28;20222;-88
2022/11/20 06:28:38;;;;;;;1.47;1.30;;;5.00;99.90;;;;;;5016074;28;20207;-88
2022/11/20 06:31:06;;;;;;;2.27;1.77;;;5.10;99.90;;;;;;4998109;28;20184;-88
2022/11/20 06:33:36;;;;;;;2.30;1.60;;;5.00;99.90;;;;;;4998175;28;20203;-88
2022/11/20 06:36:03;;;;;;;1.90;1.70;;;5.00;99.90;;;;;;4997586;28;20195;-88
2022/11/20 06:38:29;;;;;;;2.20;1.90;;;5.10;99.90;;;;;;4997694;28;20183;-87
2022/11/20 06:40:55;;;;;;;2.77;1.90;;;5.10;99.90;;;;;;5007464;28;20188;-88
2022/11/20 06:43:22;;;;;;;2.27;1.60;;;5.10;99.90;;;;;;4998798;28;20197;-88
2022/11/20 06:45:58;;;;;;;2.33;2.03;;;5.10;99.90;;;;;;5024022;28;20268;-88
2022/11/20 06:48:27;;;;;;;2.30;1.50;;;5.10;99.90;;;;;;5017617;28;20219;-88
2022/11/20 06:50:52;;;;;;;1.83;1.70;;;5.10;99.90;;;;;;5021030;28;20220;-88
2022/11/20 06:53:19;;;;;;;1.93;1.73;;;5.10;99.90;;;;;;5017085;28;20185;-88
2022/11/20 06:55:46;;;;;;;2.63;2.00;;;5.10;99.90;;;;;;5016985;28;20280;-88
2022/11/20 06:58:13;;;;;;;2.67;2.30;;;5.10;99.90;;;;;;5013727;28;20193;-88
2022/11/20 07:00:40;;;;;;;4.17;2.10;;;5.10;99.90;;;;;;5008954;28;20231;-88
2022/11/20 07:03:20;;;;;;;2.17;1.90;;;5.10;99.90;;;;;;5021051;28;20173;-87
2022/11/20 07:05:49;;;;;;;2.40;2.20;;;5.10;99.90;;;;;;5010587;28;20225;-89
2022/11/20 07:08:15;;;;;;;3.17;2.30;;;5.10;99.90;;;;;;5032702;28;20200;-88
2022/11/20 07:10:41;;;;;;;5.10;2.70;;;5.10;99.90;;;;;;5008278;28;20183;-88
2022/11/20 07:13:07;;;;;;;1.77;1.67;;;5.10;99.90;;;;;;4996697;28;20186;-88
2022/11/20 07:15:33;;;;;;;5.07;1.80;;;5.10;99.90;;;;;;4996035;28;20233;-88
2022/11/20 07:18:00;;;;;;;3.57;1.87;;;5.10;99.90;;;;;;4996681;28;20221;-88
2022/11/20 07:20:26;;;;;;;3.90;2.10;;;5.10;99.90;;;;;;4996843;28;20260;-88
2022/11/20 07:22:56;;;;;;;4.53;2.10;;;5.10;99.90;;;;;;5013470;28;20182;-88
2022/11/20 07:25:27;;;;;;;3.20;2.30;;;5.10;99.90;;;;;;5032511;28;20677;-88
2022/11/20 07:27:57;;;;;;;2.53;2.13;;;5.10;99.90;;;;;;5032775;28;20205;-88
2022/11/20 07:30:22;;;;;;;2.70;1.87;;;5.10;99.90;;;;;;5033080;28;20179;-86
2022/11/20 07:32:53;;;;;;;2.40;1.70;;;5.20;99.90;;;;;;5032680;28;20210;-86
2022/11/20 07:35:19;;;;;;;1.77;1.67;;;5.20;99.90;;;;;;5032510;28;20359;-86
2022/11/20 07:37:45;;;;;;;2.20;1.97;;;5.20;99.90;;;;;;5032444;28;20189;-86
2022/11/20 07:40:18;;;;;;;2.47;2.27;;;5.20;99.90;;;;;;5049103;28;20177;-85
2022/11/20 07:42:51;;;;;;;2.63;2.27;;;5.30;99.90;;;;;;5034688;28;20170;-85
2022/11/20 07:45:22;;;;;;;3.10;2.70;;;5.30;99.90;;;;;;5016161;28;20218;-86
2022/11/20 07:47:48;;;;;;;2.23;2.03;;;5.30;99.90;;;;;;5031109;28;20244;-86
2022/11/20 07:50:14;;;;;;;2.33;2.00;;;5.40;99.90;;;;;;5015944;28;20186;-86
2022/11/20 07:52:40;;;;;;;2.33;2.00;;;5.40;99.90;;;;;;5032306;28;20176;-85
2022/11/20 07:55:07;;;;;;;6.33;4.23;;;5.50;99.90;;;;;;5032461;28;20360;-85
2022/11/20 07:57:33;;;;;;;4.37;3.73;;;5.60;99.90;;;;;;5031805;28;20318;-86
2022/11/20 07:59:59;;;;;;;4.43;2.23;;;5.60;99.90;;;;;;5049791;28;20268;-86
2022/11/20 08:02:25;;;;;;;2.10;1.90;;;5.70;99.90;;;;;;5035433;28;20181;-86
2022/11/20 08:04:51;;;;;;;4.83;2.73;;;5.70;99.90;;;;;;5051798;28;20214;-86
2022/11/20 08:07:17;;;;;;;4.03;3.13;;;5.70;99.90;;;;;;5051680;28;20209;-85
2022/11/20 08:09:43;;;;;;;3.27;2.80;;;5.80;99.90;;;;;;5017547;28;20184;-85
2022/11/20 08:15:06;;;;;;;4.07;2.20;;;5.80;99.90;;;;;;5012563;28;20197;-85
2022/11/20 08:17:32;;;;;;;2.13;1.80;;;5.80;99.90;;;;;;4995102;28;20189;-86
2022/11/20 08:19:57;;;;;;;4.73;2.60;;;5.80;99.90;;;;;;5014151;28;20194;-85
2022/11/20 08:22:24;;;;;;;2.57;2.07;;;5.80;99.90;;;;;;5023329;28;20197;-85
2022/11/20 08:24:52;;;;;;;4.83;2.73;;;5.90;99.90;;;;;;4995690;28;20225;-86
2022/11/20 08:27:18;;;;;;;5.00;2.50;;;5.90;99.90;;;;;;4995438;28;20220;-86
2022/11/20 08:29:44;;;;;;;5.50;3.57;;;6.00;99.90;;;;;;5014385;28;20248;-86
2022/11/20 08:32:10;;;;;;;3.50;2.60;;;6.00;99.90;;;;;;5020612;28;20294;-85
2022/11/20 08:34:36;;;;;;;2.53;1.90;;;6.10;99.90;;;;;;5017027;28;20225;-86
2022/11/20 08:37:02;;;;;;;3.13;2.80;;;6.10;99.90;;;;;;5031338;28;20256;-86
2022/11/20 08:39:28;;;;;;;3.30;2.30;;;6.20;99.90;;;;;;5031783;28;20263;-88
2022/11/20 08:41:57;;;;;;;3.00;2.30;;;6.20;99.90;;;;;;5022161;28;20176;-88
2022/11/20 08:44:23;;;;;;;3.40;2.47;;;6.30;99.90;;;;;;5012152;28;20261;-88
2022/11/20 08:46:49;;;;;;;2.47;2.20;;;6.30;99.90;;;;;;5004182;28;20205;-88
2022/11/20 08:49:17;;;;;;;2.23;1.80;;;6.40;99.90;;;;;;5031444;28;20189;-89
2022/11/20 08:51:43;;;;;;;3.00;1.97;;;6.40;99.90;;;;;;5031501;28;20205;-88
2022/11/20 08:54:13;;;;;;;2.27;2.00;;;6.40;99.90;;;;;;5030851;28;20224;-88
2022/11/20 08:56:39;;;;;;;3.03;2.07;;;6.40;99.90;;;;;;5010247;28;20181;-88
2022/11/20 08:59:05;;;;;;;2.53;2.27;;;6.40;99.90;;;;;;5031418;28;20186;-88
2022/11/20 09:01:30;;;;;;;2.53;1.97;;;6.40;99.90;;;;;;5027449;28;20181;-88
2022/11/20 09:03:57;;;;;;;3.40;2.30;;;6.40;99.90;;;;;;5025697;28;20171;-88
2022/11/20 09:06:23;;;;;;;2.93;2.33;;;6.40;99.90;;;;;;5014197;28;20195;-88
2022/11/20 09:08:54;;;;;;;4.13;2.50;;;6.50;99.90;;;;;;5010384;28;20217;-88
2022/11/20 09:11:21;;;;;;;2.57;2.37;;;6.50;99.90;;;;;;5024435;28;20186;-88
2022/11/20 09:13:47;;;;;;;5.37;2.77;;;6.50;99.90;;;;;;4995220;28;20208;-88
2022/11/20 09:16:13;;;;;;;3.97;2.77;;;6.50;99.90;;;;;;4999228;28;20310;-88
2022/11/20 09:18:39;;;;;;;3.00;2.40;;;6.50;99.90;;;;;;5017295;28;20875;-88
2022/11/20 09:21:13;;;;;;;3.73;3.10;;;6.50;99.90;;;;;;5014749;28;20208;-88
2022/11/20 09:23:39;;;;;;;2.67;2.27;;;6.60;99.90;;;;;;4997332;28;20556;-88
2022/11/20 09:26:13;;;;;;;4.13;2.73;;;6.60;99.90;;;;;;5010106;28;20253;-88
2022/11/20 09:28:43;;;;;;;5.23;2.80;;;6.60;99.90;;;;;;5041382;28;20216;-89
2022/11/20 09:31:20;;;;;;;3.40;2.50;;;6.70;99.90;;;;;;5041814;28;20182;-88
2022/11/20 09:33:48;;;;;;;1.80;1.70;;;6.70;99.90;;;;;;5052404;28;20232;-86
2022/11/20 09:36:18;;;;;;;2.80;1.30;;;6.80;99.90;;;;;;5043018;28;20239;-88
2022/11/20 09:38:46;;;;;;;1.50;1.40;;;6.90;99.90;;;;;;5025920;28;20180;-89
2022/11/20 09:41:51;;;;;;;4.13;1.70;;;6.90;99.90;;;;;;5026979;28;20189;-88
2022/11/20 09:44:45;;;;;;;2.00;1.50;;;6.90;99.90;;;;;;5026845;28;20215;-88
2022/11/20 09:47:31;;;;;;;2.07;1.60;;;7.00;99.90;;;;;;5035609;28;20222;-88
2022/11/20 09:50:18;;;;;;;2.40;1.80;;;7.00;99.90;;;;;;5050665;28;20238;-88
2022/11/20 09:53:02;;;;;;;3.13;2.23;;;7.00;99.90;;;;;;5030476;28;20169;-88
2022/11/20 09:55:30;;;;;;;2.23;1.90;;;7.00;99.90;;;;;;5029091;28;20201;-88
2022/11/20 09:57:58;;;;;;;1.87;1.60;;;7.00;99.90;;;;;;5044106;28;20206;-87
2022/11/20 10:00:28;;;;;;;2.10;1.90;;;7.00;99.90;;;;;;5042861;28;20181;-88
2022/11/20 10:03:11;;;;;;;2.20;1.40;;;7.00;99.90;;;;;;5041742;28;20168;-93
2022/11/20 10:05:49;;;;;;;2.37;1.80;;;7.10;99.90;;;;;;5034202;28;20205;-89
2022/11/20 10:08:29;;;;;;;1.50;1.20;;;7.10;99.90;;;;;;5039137;28;20213;-88
2022/11/20 10:11:08;;;;;;;2.27;1.90;;;7.10;99.90;;;;;;5037340;28;20185;-88
2022/11/20 10:14:04;;;;;;;2.37;1.97;;;7.20;99.90;;;;;;5009860;28;20187;-87
2022/11/20 10:16:53;;;;;;;3.17;2.53;;;7.20;99.90;;;;;;4998895;28;20188;-88
2022/11/20 10:19:46;;;;;;;3.87;2.13;;;7.20;99.90;;;;;;5014530;28;20266;-87
2022/11/20 10:22:50;;;;;;;1.63;1.30;;;7.20;99.90;;;;;;5045227;28;20179;-87
2022/11/20 10:25:24;;;;;;;2.37;1.70;;;7.20;99.90;;;;;;4998417;28;20205;-87
2022/11/20 10:28:27;;;;;;;5.03;3.93;;;7.20;99.90;;;;;;5002872;28;20209;-88
2022/11/20 10:31:14;;;;;;;2.97;2.60;;;7.30;99.90;;;;;;5008063;28;20179;-87
2022/11/20 10:34:02;;;;;;;2.50;2.30;;;7.40;99.90;;;;;;4997664;28;20229;-88
2022/11/20 10:36:38;;;;;;;2.50;1.10;;;7.40;99.90;;;;;;5027000;28;20254;-88
2022/11/20 10:39:14;;;;;;;1.40;1.30;;;7.40;99.90;;;;;;4999816;28;20183;-88
2022/11/20 10:41:42;;;;;;;2.73;1.10;;;7.40;99.90;;;;;;5001340;28;20179;-88
2022/11/20 10:47:11;;;;;;;1.47;1.20;;;7.40;99.90;;;;;;5022782;28;20668;-88
2022/11/20 10:49:38;;;;;;;1.83;1.30;;;7.40;99.90;;;;;;4982362;28;20195;-88
2022/11/20 10:52:16;;;;;;;1.83;1.53;;;7.40;99.90;;;;;;5014089;28;20171;-87
2022/11/20 10:55:10;;;;;;;1.00;1.00;;;7.40;99.90;;;;;;5008840;28;20201;-88
2022/11/20 10:57:47;;;;;;;1.30;1.20;;;7.50;99.90;;;;;;5033270;28;20174;-88
2022/11/20 11:00:16;;;;;;;1.53;1.43;;;7.50;99.90;;;;;;5024354;28;20170;-88
2022/11/20 11:02:54;;;;;;;3.33;1.70;;;7.50;99.90;;;;;;5053200;28;20196;-88
2022/11/20 11:05:31;;;;;;;2.93;1.80;;;7.40;99.90;;;;;;5053314;28;20209;-88
2022/11/20 11:07:59;;;;;;;2.07;1.77;;;7.50;99.90;;;;;;5052690;28;20201;-88
2022/11/20 11:10:58;;;;;;;2.70;1.70;;;7.50;99.90;;;;;;5051089;28;20185;-88
2022/11/20 11:13:27;;;;;;;2.30;1.50;;;7.60;99.90;;;;;;5032938;28;20242;-87
2022/11/20 11:15:54;;;;;;;1.90;1.13;;;7.70;99.90;;;;;;5009740;28;20233;-88
2022/11/20 11:18:31;;;;;;;1.57;1.40;;;7.70;99.90;;;;;;5031678;28;20278;-86
2022/11/20 11:21:04;;;;;;;1.83;1.23;;;7.80;99.90;;;;;;5032063;28;20221;-87
2022/11/20 11:23:33;;;;;;;3.13;1.03;;;7.90;99.90;;;;;;5031377;28;20175;-89
2022/11/20 11:26:01;;;;;;;2.00;1.10;;;8.10;99.90;;;;;;5032912;28;20273;-89
2022/11/20 11:28:28;;;;;;;1.10;1.00;;;8.30;99.90;;;;;;5032656;28;20297;-88
2022/11/20 11:30:54;;;;;;;1.50;1.00;;;8.40;99.90;;;;;;5032539;28;20182;-88
2022/11/20 11:33:33;;;;;;;1.80;0.70;;;8.40;99.90;;;;;;5016121;28;20210;-89
2022/11/20 11:36:02;;;;;;;1.60;1.10;;;8.40;99.90;;;;;;5032404;28;20198;-89
2022/11/20 11:38:40;;;;;;;1.10;1.00;;;8.50;99.90;;;;;;5032424;28;20222;-88
2022/11/20 11:41:12;;;;;;;1.63;1.00;;;8.40;99.90;;;;;;5049439;28;20162;-88
2022/11/20 11:46:32;;;;;;;0.87;0.80;;;8.10;99.90;;;;;;5034280;28;20202;-88
2022/11/20 11:49:00;;;;;;;1.80;1.20;;;8.00;99.90;;;;;;5029562;28;20216;-89
2022/11/20 11:51:45;;;;;;;4.30;1.87;;;7.90;99.90;;;;;;5035416;28;20192;-81
2022/11/20 11:54:22;;;;;;;3.23;1.30;;;7.90;99.90;;;;;;5016927;28;20183;-90
2022/11/20 11:56:49;;;;;;;2.50;1.17;;;7.80;99.90;;;;;;5008489;28;20189;-88
2022/11/20 11:59:41;;;;;;;1.97;1.70;;;8.00;99.90;;;;;;5013495;28;20194;-88
2022/11/20 12:02:23;;;;;;;1.40;1.20;;;8.10;99.90;;;;;;5015926;28;20179;-88
2022/11/20 12:05:27;;;;;;;1.30;1.13;;;8.10;99.90;;;;;;5015789;28;20356;-88
2022/11/20 12:08:09;;;;;;;2.17;1.30;;;8.10;99.90;;;;;;5028082;28;20229;-88
2022/11/20 12:11:02;;;;;;;1.67;1.20;;;8.00;99.90;;;;;;5022629;28;20182;-88
2022/11/20 12:13:39;;;;;;;1.87;1.27;;;8.10;99.90;;;;;;5015452;28;20182;-88
2022/11/20 12:16:10;;;;;;;3.60;1.20;;;8.10;99.90;;;;;;5019576;28;20253;-88
2022/11/20 12:18:41;;;;;;;1.40;0.90;;;8.10;99.90;;;;;;4995654;28;20207;-88
2022/11/20 12:21:13;;;;;;;0.80;0.80;;;8.10;99.90;;;;;;5010931;28;20183;-88
2022/11/20 12:24:01;;;;;;;1.13;0.60;;;8.10;99.90;;;;;;5011122;28;20174;-89
2022/11/20 12:27:05;;;;;;;1.33;1.07;;;8.00;99.90;;;;;;4996201;28;20207;-88
2022/11/20 12:30:02;;;;;;;1.00;0.90;;;7.90;99.90;;;;;;5023898;28;20210;-88
2022/11/20 12:33:05;;;;;;;0.83;0.70;;;8.00;99.90;;;;;;4997381;28;20196;-88
2022/11/20 12:35:58;;;;;;;1.20;1.00;;;8.20;99.90;;;;;;5015205;28;20198;-88
2022/11/20 12:38:55;;;;;;;0.67;0.67;;;8.30;99.90;;;;;;5029383;28;20169;-88
2022/11/20 12:47:40;;;;;;;0.90;0.70;;;8.90;99.90;;;;;;5011824;28;20272;-88
2022/11/20 12:50:27;;;;;;;1.03;0.83;;;9.00;99.90;;;;;;4995625;28;20179;-88
2022/11/20 12:53:10;;;;;;;0.80;0.80;;;8.90;99.90;;;;;;4996052;28;20179;-88
2022/11/20 12:55:42;;;;;;;1.47;0.90;;;8.70;99.90;;;;;;4995467;28;20199;-88
2022/11/20 12:58:22;;;;;;;2.03;0.80;;;8.60;99.90;;;;;;5008871;28;20181;-86
2022/11/20 13:01:03;;;;;;;2.03;0.97;;;8.40;99.90;;;;;;5031762;28;20185;-86
2022/11/20 13:03:56;;;;;;;1.43;1.00;;;8.30;99.90;;;;;;5034360;28;20258;-86
2022/11/20 13:06:24;;;;;;;1.90;0.87;;;8.20;99.90;;;;;;5034880;28;20206;-86
2022/11/20 13:09:13;;;;;;;6.93;1.30;;;8.20;99.90;;;;;;5035001;28;20211;-86
2022/11/20 13:11:59;;;;;;;1.70;1.37;;;8.30;99.90;;;;;;5017877;28;20185;-86
2022/11/20 13:14:42;;;;;;;2.83;1.70;;;8.30;99.90;;;;;;5018848;28;20226;-86
2022/11/20 13:17:20;;;;;;;3.37;1.30;;;8.20;99.90;;;;;;5018658;28;20182;-88
2022/11/20 13:19:52;;;;;;;1.70;1.10;;;8.20;99.90;;;;;;5034644;28;20178;-88
2022/11/20 13:22:42;;;;;;;2.97;1.70;;;8.10;99.90;;;;;;5018762;28;20221;-87
2022/11/20 13:25:25;;;;;;;2.07;1.20;;;8.10;99.90;;;;;;5014711;28;20241;-87
2022/11/20 13:27:52;;;;;;;2.00;1.10;;;8.10;99.90;;;;;;5033920;28;20202;-88
2022/11/20 13:30:23;;;;;;;2.53;1.10;;;8.00;99.90;;;;;;5042155;28;20182;-88
2022/11/20 13:33:22;;;;;;;2.17;0.70;;;8.10;99.90;;;;;;5046489;28;20178;-88
2022/11/20 13:36:01;;;;;;;1.57;0.90;;;8.40;99.90;;;;;;5034414;28;20203;-86
2022/11/20 13:38:28;;;;;;;2.07;1.20;;;8.40;99.90;;;;;;5042882;28;20182;-86